Private Wetterstation Sandau
Wetterdaten: Samstag, 29.12.2012
Datum Zeit Temp. A. Feuchte A. Luftdruck Regen Wind Richtung Richtung Taupunkt Windchill
29.12.2012 00:01 1,9 C 85 % 1023,3 hPa 0,0 l/m 3,6 km/h (1 Bft) SO 135 -0,3 C 1,9 C
29.12.2012 00:06 2,0 C 85 % 1023,2 hPa 0,0 l/m 14,8 km/h (3 Bft) S 180 -0,3 C -1,9 C
29.12.2012 00:11 2,1 C 85 % 1023,2 hPa 0,0 l/m 9,0 km/h (2 Bft) S-SO 157 -0,2 C -0,6 C
29.12.2012 00:16 2,1 C 85 % 1023,3 hPa 0,0 l/m 10,4 km/h (2 Bft) S-SW 202 -0,2 C -0,9 C
29.12.2012 00:21 2,1 C 85 % 1022,9 hPa 0,0 l/m 11,9 km/h (2 Bft) S 180 -0,2 C -1,2 C
29.12.2012 00:26 2,1 C 85 % 1022,9 hPa 0,0 l/m 4,3 km/h (1 Bft) S 180 -0,2 C 2,1 C
29.12.2012 00:31 2,2 C 86 % 1022,9 hPa 0,0 l/m 15,5 km/h (3 Bft) S-SW 202 0,1 C -1,8 C
29.12.2012 00:36 2,2 C 86 % 1022,8 hPa 0,0 l/m 3,6 km/h (1 Bft) S-SO 157 0,1 C 2,2 C
29.12.2012 00:41 2,2 C 85 % 1023,0 hPa 0,0 l/m 7,2 km/h (2 Bft) S-SO 157 -0,1 C 0,1 C
29.12.2012 00:46 2,2 C 86 % 1023,1 hPa 0,0 l/m 3,6 km/h (1 Bft) S 180 0,1 C 2,2 C
29.12.2012 00:51 2,2 C 86 % 1022,7 hPa 0,0 l/m 4,0 km/h (1 Bft) S 180 0,1 C 2,2 C
29.12.2012 00:56 2,2 C 86 % 1022,7 hPa 0,0 l/m 13,3 km/h (3 Bft) S-SO 157 0,1 C -1,4 C
29.12.2012 01:01 2,3 C 86 % 1022,7 hPa 0,0 l/m 9,7 km/h (2 Bft) S-SO 157 0,2 C -0,5 C
29.12.2012 01:06 2,3 C 86 % 1022,7 hPa 0,0 l/m 4,3 km/h (1 Bft) S-SO 157 0,2 C 2,3 C
29.12.2012 01:11 2,3 C 86 % 1022,6 hPa 0,0 l/m 3,2 km/h (1 Bft) S 180 0,2 C 2,3 C
29.12.2012 01:16 2,4 C 86 % 1022,6 hPa 0,0 l/m 5,0 km/h (1 Bft) S-SO 157 0,3 C 1,1 C
29.12.2012 01:21 2,4 C 86 % 1022,5 hPa 0,0 l/m 5,0 km/h (1 Bft) S-SO 157 0,3 C 1,1 C
29.12.2012 01:26 2,4 C 86 % 1022,3 hPa 0,0 l/m 17,3 km/h (3 Bft) S-SW 202 0,3 C -1,8 C
29.12.2012 01:31 2,5 C 86 % 1022,3 hPa 0,0 l/m 3,2 km/h (1 Bft) S-SW 202 0,4 C 2,5 C
29.12.2012 01:36 2,6 C 86 % 1022,3 hPa 0,0 l/m 10,8 km/h (2 Bft) S-SW 202 0,5 C -0,4 C
29.12.2012 01:41 2,6 C 86 % 1022,4 hPa 0,0 l/m 8,3 km/h (2 Bft) S-SO 157 0,5 C 0,2 C
29.12.2012 01:46 2,6 C 86 % 1022,3 hPa 0,0 l/m 9,7 km/h (2 Bft) S-SO 157 0,5 C -0,1 C
29.12.2012 01:51 2,7 C 86 % 1022,1 hPa 0,0 l/m 4,7 km/h (1 Bft) S-SW 202 0,6 C 1,6 C
29.12.2012 01:56 2,7 C 86 % 1022,2 hPa 0,0 l/m 6,8 km/h (2 Bft) S-SO 157 0,6 C 0,8 C
29.12.2012 02:01 2,7 C 86 % 1022,2 hPa 0,0 l/m 0,0 km/h (0 Bft) O-SO 112 0,6 C 2,7 C
29.12.2012 02:06 2,8 C 86 % 1022,2 hPa 0,0 l/m 9,0 km/h (2 Bft) S-SO 157 0,7 C 0,3 C
29.12.2012 02:11 2,8 C 86 % 1022,0 hPa 0,0 l/m 6,1 km/h (2 Bft) S 180 0,7 C 1,2 C
29.12.2012 02:16 2,8 C 86 % 1021,8 hPa 0,0 l/m 5,0 km/h (1 Bft) S-SW 202 0,7 C 1,6 C
29.12.2012 02:21 2,8 C 87 % 1021,7 hPa 0,0 l/m 6,1 km/h (2 Bft) S 180 0,9 C 1,2 C
29.12.2012 02:26 2,8 C 87 % 1021,6 hPa 0,0 l/m 7,6 km/h (2 Bft) S-SW 202 0,9 C 0,7 C
29.12.2012 02:31 2,7 C 87 % 1021,6 hPa 0,0 l/m 8,6 km/h (2 Bft) S-SW 202 0,8 C 0,3 C
29.12.2012 02:36 2,7 C 88 % 1021,4 hPa 0,0 l/m 13,3 km/h (3 Bft) S 180 0,9 C -0,8 C
29.12.2012 02:41 2,7 C 88 % 1021,5 hPa 0,0 l/m 9,0 km/h (2 Bft) S-SO 157 0,9 C 0,2 C
29.12.2012 02:46 2,8 C 89 % 1021,5 hPa 0,0 l/m 13,3 km/h (3 Bft) S 180 1,2 C -0,7 C
29.12.2012 02:51 2,8 C 89 % 1021,5 hPa 0,0 l/m 4,7 km/h (1 Bft) SO 135 1,2 C 1,7 C
29.12.2012 02:56 2,9 C 89 % 1021,5 hPa 0,0 l/m 5,8 km/h (2 Bft) S 180 1,3 C 1,4 C
29.12.2012 03:01 2,9 C 89 % 1021,2 hPa 0,0 l/m 2,5 km/h (1 Bft) W-SW 247 1,3 C 2,9 C
29.12.2012 03:06 2,9 C 89 % 1021,4 hPa 0,0 l/m 0,0 km/h (0 Bft) S-SO 157 1,3 C 2,9 C
29.12.2012 03:11 2,9 C 89 % 1021,4 hPa 0,0 l/m 5,0 km/h (1 Bft) O-SO 112 1,3 C 1,7 C
29.12.2012 03:16 3,0 C 89 % 1021,4 hPa 0,0 l/m 4,0 km/h (1 Bft) S-SW 202 1,4 C 3,0 C
29.12.2012 03:21 3,1 C 89 % 1021,2 hPa 0,0 l/m 5,4 km/h (1 Bft) S 180 1,5 C 1,8 C
29.12.2012 03:26 3,1 C 89 % 1021,1 hPa 0,0 l/m 4,7 km/h (1 Bft) S 180 1,5 C 2,1 C
29.12.2012 03:31 3,1 C 89 % 1021,0 hPa 0,0 l/m 5,0 km/h (1 Bft) S-SO 157 1,5 C 1,9 C
29.12.2012 03:36 3,1 C 89 % 1020,9 hPa 0,0 l/m 2,5 km/h (1 Bft) SO 135 1,5 C 3,1 C
29.12.2012 03:41 3,1 C 89 % 1020,8 hPa 0,0 l/m 13,7 km/h (3 Bft) S-SW 202 1,5 C -0,4 C
29.12.2012 03:46 3,1 C 89 % 1020,8 hPa 0,0 l/m 3,6 km/h (1 Bft) SW 225 1,5 C 3,1 C
29.12.2012 03:51 3,1 C 89 % 1020,7 hPa 0,0 l/m 7,2 km/h (2 Bft) S 180 1,5 C 1,1 C
29.12.2012 03:56 3,2 C 89 % 1021,0 hPa 0,0 l/m 11,9 km/h (2 Bft) S-SW 202 1,6 C 0,1 C
29.12.2012 04:01 3,2 C 89 % 1020,6 hPa 0,0 l/m 9,4 km/h (2 Bft) S 180 1,6 C 0,7 C
29.12.2012 04:06 3,3 C 89 % 1020,7 hPa 0,0 l/m 4,3 km/h (1 Bft) S-SW 202 1,7 C 3,3 C
29.12.2012 04:11 3,4 C 89 % 1020,6 hPa 0,0 l/m 8,6 km/h (2 Bft) S-SW 202 1,8 C 1,1 C
29.12.2012 04:16 3,4 C 89 % 1020,6 hPa 0,0 l/m 10,8 km/h (2 Bft) S 180 1,8 C 0,6 C
29.12.2012 04:21 3,5 C 89 % 1020,7 hPa 0,0 l/m 13,7 km/h (3 Bft) S-SW 202 1,9 C 0,1 C
29.12.2012 04:26 3,6 C 89 % 1020,7 hPa 0,0 l/m 9,0 km/h (2 Bft) S-SW 202 2,0 C 1,2 C
29.12.2012 04:31 3,6 C 89 % 1020,6 hPa 0,0 l/m 11,9 km/h (2 Bft) S-SW 202 2,0 C 0,6 C
29.12.2012 04:36 3,6 C 89 % 1020,6 hPa 0,0 l/m 3,2 km/h (1 Bft) S-SO 157 2,0 C 3,6 C
29.12.2012 04:41 3,8 C 89 % 1020,7 hPa 0,0 l/m 12,2 km/h (2 Bft) S-SW 202 2,2 C 0,8 C
29.12.2012 04:46 3,8 C 89 % 1020,5 hPa 0,0 l/m 4,0 km/h (1 Bft) S 180 2,2 C 3,8 C
29.12.2012 04:51 3,9 C 89 % 1020,7 hPa 0,0 l/m 7,2 km/h (2 Bft) W-SW 247 2,3 C 2,1 C
29.12.2012 04:56 3,9 C 88 % 1020,8 hPa 0,0 l/m 11,5 km/h (2 Bft) S-SW 202 2,1 C 1,0 C
29.12.2012 05:01 3,9 C 89 % 1020,7 hPa 0,0 l/m 5,8 km/h (2 Bft) S 180 2,3 C 2,5 C
29.12.2012 05:06 4,1 C 89 % 1020,5 hPa 0,0 l/m 8,6 km/h (2 Bft) SW 225 2,5 C 1,9 C
29.12.2012 05:11 4,1 C 89 % 1020,6 hPa 0,0 l/m 14,4 km/h (3 Bft) S 180 2,5 C 0,7 C
29.12.2012 05:16 4,1 C 89 % 1020,5 hPa 0,0 l/m 6,8 km/h (2 Bft) S 180 2,5 C 2,4 C
29.12.2012 05:21 4,2 C 88 % 1020,5 hPa 0,0 l/m 10,1 km/h (2 Bft) S 180 2,4 C 1,7 C
29.12.2012 05:26 4,2 C 88 % 1020,5 hPa 0,0 l/m 6,1 km/h (2 Bft) S-SO 157 2,4 C 2,8 C
29.12.2012 05:31 4,3 C 88 % 1020,4 hPa 0,0 l/m 13,0 km/h (3 Bft) SW 225 2,5 C 1,2 C
29.12.2012 05:36 4,3 C 88 % 1020,3 hPa 0,0 l/m 7,6 km/h (2 Bft) S 180 2,5 C 2,4 C
29.12.2012 05:41 4,3 C 88 % 1020,1 hPa 0,0 l/m 11,2 km/h (2 Bft) S 180 2,5 C 1,6 C
29.12.2012 05:46 4,3 C 88 % 1020,2 hPa 0,0 l/m 18,4 km/h (3 Bft) SW 225 2,5 C 0,4 C
29.12.2012 05:51 4,3 C 88 % 1020,2 hPa 0,0 l/m 9,4 km/h (2 Bft) SW 225 2,5 C 2,0 C
29.12.2012 05:56 4,4 C 88 % 1020,3 hPa 0,0 l/m 9,7 km/h (2 Bft) S 180 2,6 C 2,0 C
29.12.2012 06:01 4,4 C 88 % 1020,3 hPa 0,0 l/m 11,9 km/h (2 Bft) S-SW 202 2,6 C 1,5 C
29.12.2012 06:06 4,5 C 88 % 1020,3 hPa 0,0 l/m 16,9 km/h (3 Bft) S 180 2,7 C 0,8 C
29.12.2012 06:11 4,5 C 88 % 1020,2 hPa 0,0 l/m 7,2 km/h (2 Bft) S 180 2,7 C 2,8 C
29.12.2012 06:16 4,6 C 88 % 1020,2 hPa 0,0 l/m 8,6 km/h (2 Bft) S-SW 202 2,8 C 2,5 C
29.12.2012 06:21 4,6 C 88 % 1020,1 hPa 0,0 l/m 9,7 km/h (2 Bft) S-SW 202 2,8 C 2,2 C
29.12.2012 06:26 4,7 C 88 % 1019,9 hPa 0,0 l/m 9,7 km/h (2 Bft) SW 225 2,9 C 2,4 C
29.12.2012 06:31 4,7 C 88 % 1020,0 hPa 0,0 l/m 4,7 km/h (1 Bft) S 180 2,9 C 3,9 C
29.12.2012 06:36 4,7 C 88 % 1020,0 hPa 0,0 l/m 10,4 km/h (2 Bft) S-SW 202 2,9 C 2,2 C
29.12.2012 06:41 4,8 C 88 % 1019,8 hPa 0,0 l/m 7,6 km/h (2 Bft) W-SW 247 3,0 C 3,0 C
29.12.2012 06:46 4,7 C 88 % 1019,9 hPa 0,0 l/m 16,2 km/h (3 Bft) S-SW 202 2,9 C 1,2 C
29.12.2012 06:51 4,8 C 88 % 1020,0 hPa 0,0 l/m 7,2 km/h (2 Bft) S-SO 157 3,0 C 3,1 C
29.12.2012 06:56 4,8 C 88 % 1019,7 hPa 0,0 l/m 10,8 km/h (2 Bft) SW 225 3,0 C 2,2 C
29.12.2012 07:01 4,9 C 88 % 1019,7 hPa 0,0 l/m 15,5 km/h (3 Bft) S 180 3,1 C 1,5 C
29.12.2012 07:06 4,9 C 88 % 1019,8 hPa 0,0 l/m 16,9 km/h (3 Bft) S-SW 202 3,1 C 1,3 C
29.12.2012 07:11 4,9 C 88 % 1019,7 hPa 0,0 l/m 12,6 km/h (3 Bft) S 180 3,1 C 2,0 C
29.12.2012 07:16 4,9 C 88 % 1019,7 hPa 0,0 l/m 14,4 km/h (3 Bft) S-SW 202 3,1 C 1,7 C
29.12.2012 07:21 5,0 C 88 % 1019,7 hPa 0,0 l/m 10,4 km/h (2 Bft) S 180 3,2 C 2,6 C
29.12.2012 07:26 5,1 C 88 % 1019,6 hPa 0,0 l/m 14,8 km/h (3 Bft) S-SO 157 3,3 C 1,9 C
29.12.2012 07:31 5,1 C 88 % 1019,8 hPa 0,0 l/m 10,1 km/h (2 Bft) W-SW 247 3,3 C 2,8 C
29.12.2012 07:36 5,1 C 88 % 1019,6 hPa 0,0 l/m 19,4 km/h (3 Bft) S-SW 202 3,3 C 1,3 C
29.12.2012 07:41 5,1 C 88 % 1019,6 hPa 0,0 l/m 10,8 km/h (2 Bft) S-SW 202 3,3 C 2,6 C
29.12.2012 07:46 5,2 C 88 % 1019,7 hPa 0,0 l/m 12,6 km/h (3 Bft) S 180 3,4 C 2,4 C
29.12.2012 07:51 5,3 C 88 % 1019,7 hPa 0,0 l/m 12,2 km/h (2 Bft) SW 225 3,5 C 2,6 C
29.12.2012 07:56 5,3 C 89 % 1019,6 hPa 0,0 l/m 8,6 km/h (2 Bft) S 180 3,6 C 3,3 C
29.12.2012 08:01 5,3 C 89 % 1019,7 hPa 0,0 l/m 11,9 km/h (2 Bft) S 180 3,6 C 2,6 C
29.12.2012 08:06 5,4 C 89 % 1019,8 hPa 0,0 l/m 10,1 km/h (2 Bft) S 180 3,7 C 3,1 C
29.12.2012 08:11 5,4 C 89 % 1019,8 hPa 0,0 l/m 12,2 km/h (2 Bft) S 180 3,7 C 2,7 C
29.12.2012 08:16 5,4 C 89 % 1019,6 hPa 0,0 l/m 13,3 km/h (3 Bft) W-SW 247 3,7 C 2,5 C
29.12.2012 08:21 5,4 C 89 % 1019,6 hPa 0,0 l/m 15,5 km/h (3 Bft) W-SW 247 3,7 C 2,2 C
29.12.2012 08:26 5,4 C 89 % 1019,7 hPa 0,0 l/m 19,1 km/h (3 Bft) S 180 3,7 C 1,7 C
29.12.2012 08:31 5,5 C 89 % 1019,7 hPa 0,0 l/m 13,3 km/h (3 Bft) S-SW 202 3,8 C 2,6 C
29.12.2012 08:36 5,5 C 89 % 1019,7 hPa 0,0 l/m 10,1 km/h (2 Bft) S-SW 202 3,8 C 3,2 C
29.12.2012 08:41 5,8 C 89 % 1019,7 hPa 0,0 l/m 8,3 km/h (2 Bft) W-SW 247 4,1 C 4,0 C
29.12.2012 08:46 5,9 C 89 % 1019,5 hPa 0,0 l/m 18,4 km/h (3 Bft) W-SW 247 4,2 C 2,4 C
29.12.2012 08:51 5,9 C 88 % 1019,7 hPa 0,0 l/m 20,5 km/h (4 Bft) SW 225 4,1 C 2,1 C
29.12.2012 08:56 5,9 C 88 % 1019,6 hPa 0,0 l/m 10,8 km/h (2 Bft) S-SW 202 4,1 C 3,6 C
29.12.2012 09:01 5,8 C 88 % 1019,8 hPa 0,0 l/m 6,1 km/h (2 Bft) SO 135 4,0 C 4,6 C
29.12.2012 09:06 5,8 C 88 % 1019,7 hPa 0,0 l/m 13,7 km/h (3 Bft) S 180 4,0 C 2,9 C
29.12.2012 09:11 5,8 C 88 % 1019,6 hPa 0,0 l/m 11,2 km/h (2 Bft) S-SW 202 4,0 C 3,4 C
29.12.2012 09:16 5,8 C 88 % 1019,6 hPa 0,0 l/m 7,2 km/h (2 Bft) S-SW 202 4,0 C 4,3 C
29.12.2012 09:21 5,8 C 88 % 1019,9 hPa 0,0 l/m 13,0 km/h (3 Bft) S-SW 202 4,0 C 3,1 C
29.12.2012 09:26 5,8 C 88 % 1019,8 hPa 0,0 l/m 11,9 km/h (2 Bft) SW 225 4,0 C 3,2 C
29.12.2012 09:31 5,8 C 88 % 1019,7 hPa 0,0 l/m 15,8 km/h (3 Bft) S 180 4,0 C 2,6 C
29.12.2012 09:36 5,9 C 88 % 1019,5 hPa 0,0 l/m 16,6 km/h (3 Bft) SW 225 4,1 C 2,6 C
29.12.2012 09:41 5,9 C 89 % 1019,6 hPa 0,0 l/m 16,9 km/h (3 Bft) S 180 4,2 C 2,6 C
29.12.2012 09:46 5,9 C 89 % 1019,6 hPa 0,0 l/m 11,2 km/h (2 Bft) S-SO 157 4,2 C 3,5 C
29.12.2012 09:51 5,9 C 89 % 1019,6 hPa 0,0 l/m 6,1 km/h (2 Bft) S-SW 202 4,2 C 4,7 C
29.12.2012 09:56 6,0 C 89 % 1019,5 hPa 0,0 l/m 6,8 km/h (2 Bft) S-SO 157 4,3 C 4,6 C
29.12.2012 10:01 6,1 C 89 % 1019,6 hPa 0,0 l/m 9,4 km/h (2 Bft) S-SW 202 4,4 C 4,1 C
29.12.2012 10:06 6,1 C 89 % 1019,6 hPa 0,0 l/m 16,6 km/h (3 Bft) W-SW 247 4,4 C 2,9 C
29.12.2012 10:11 6,1 C 89 % 1019,6 hPa 0,0 l/m 10,1 km/h (2 Bft) S-SW 202 4,4 C 4,0 C
29.12.2012 10:16 6,1 C 89 % 1019,7 hPa 0,0 l/m 18,7 km/h (3 Bft) SW 225 4,4 C 2,6 C
29.12.2012 10:21 6,1 C 89 % 1019,6 hPa 0,0 l/m 15,5 km/h (3 Bft) S-SW 202 4,4 C 3,0 C
29.12.2012 10:26 6,2 C 89 % 1019,5 hPa 0,0 l/m 7,6 km/h (2 Bft) S-SW 202 4,5 C 4,6 C
29.12.2012 10:31 6,3 C 89 % 1019,5 hPa 0,0 l/m 15,8 km/h (3 Bft) S-SW 202 4,6 C 3,2 C
29.12.2012 10:36 6,3 C 89 % 1019,5 hPa 0,0 l/m 14,0 km/h (3 Bft) S 180 4,6 C 3,5 C
29.12.2012 10:41 6,3 C 89 % 1019,4 hPa 0,0 l/m 14,0 km/h (3 Bft) S-SW 202 4,6 C 3,5 C
29.12.2012 10:46 6,3 C 89 % 1019,4 hPa 0,0 l/m 7,2 km/h (2 Bft) S-SW 202 4,6 C 4,9 C
29.12.2012 10:51 6,4 C 88 % 1019,2 hPa 0,0 l/m 6,5 km/h (2 Bft) S-SW 202 4,6 C 5,2 C
29.12.2012 10:56 6,4 C 88 % 1019,2 hPa 0,0 l/m 18,4 km/h (3 Bft) S-SO 157 4,6 C 3,0 C
29.12.2012 11:01 6,5 C 88 % 1019,0 hPa 0,0 l/m 18,4 km/h (3 Bft) W-SW 247 4,7 C 3,1 C
29.12.2012 11:06 6,5 C 88 % 1019,1 hPa 0,0 l/m 6,5 km/h (2 Bft) W-SW 247 4,7 C 5,3 C
29.12.2012 11:11 6,5 C 88 % 1019,0 hPa 0,0 l/m 5,4 km/h (1 Bft) S 180 4,7 C 5,6 C
29.12.2012 11:16 6,6 C 88 % 1018,8 hPa 0,0 l/m 11,9 km/h (2 Bft) S-SO 157 4,8 C 4,2 C
29.12.2012 11:21 6,7 C 88 % 1018,7 hPa 0,0 l/m 11,2 km/h (2 Bft) SW 225 4,9 C 4,5 C
29.12.2012 11:26 6,7 C 88 % 1018,6 hPa 0,0 l/m 10,1 km/h (2 Bft) S-SW 202 4,9 C 4,7 C
29.12.2012 11:31 6,8 C 87 % 1018,6 hPa 0,0 l/m 12,2 km/h (2 Bft) S 180 4,8 C 4,4 C
29.12.2012 11:36 6,9 C 87 % 1018,6 hPa 0,0 l/m 11,9 km/h (2 Bft) SW 225 4,9 C 4,6 C
29.12.2012 11:41 6,9 C 87 % 1018,6 hPa 0,0 l/m 14,4 km/h (3 Bft) S-SW 202 4,9 C 4,2 C
29.12.2012 11:46 6,9 C 88 % 1018,6 hPa 0,0 l/m 11,2 km/h (2 Bft) S 180 5,1 C 4,7 C
29.12.2012 11:51 7,0 C 88 % 1018,5 hPa 0,0 l/m 5,4 km/h (1 Bft) S-SW 202 5,2 C 6,2 C
29.12.2012 11:56 7,0 C 88 % 1018,4 hPa 0,0 l/m 13,0 km/h (3 Bft) W-SW 247 5,2 C 4,5 C
29.12.2012 12:01 7,1 C 88 % 1018,4 hPa 0,0 l/m 5,4 km/h (1 Bft) S 180 5,2 C 6,3 C
29.12.2012 12:06 7,1 C 88 % 1018,3 hPa 0,0 l/m 4,3 km/h (1 Bft) S-SW 202 5,2 C 7,1 C
29.12.2012 12:11 7,2 C 88 % 1018,2 hPa 0,0 l/m 4,0 km/h (1 Bft) SO 135 5,3 C 7,2 C
29.12.2012 12:16 7,3 C 87 % 1018,2 hPa 0,0 l/m 15,5 km/h (3 Bft) S-SW 202 5,3 C 4,5 C
29.12.2012 12:21 7,3 C 87 % 1018,2 hPa 0,0 l/m 5,0 km/h (1 Bft) S-SO 157 5,3 C 6,7 C
29.12.2012 12:26 7,4 C 87 % 1018,1 hPa 0,0 l/m 5,8 km/h (2 Bft) SW 225 5,4 C 6,5 C
29.12.2012 12:31 7,5 C 87 % 1018,0 hPa 0,0 l/m 10,8 km/h (2 Bft) SW 225 5,5 C 5,5 C
29.12.2012 12:36 7,5 C 87 % 1018,0 hPa 0,0 l/m 5,0 km/h (1 Bft) S-SO 157 5,5 C 6,9 C
29.12.2012 12:41 7,6 C 86 % 1017,8 hPa 0,0 l/m 13,7 km/h (3 Bft) S 180 5,4 C 5,1 C
29.12.2012 12:46 7,5 C 86 % 1017,9 hPa 0,0 l/m 7,6 km/h (2 Bft) S 180 5,3 C 6,2 C
29.12.2012 12:51 7,5 C 86 % 1017,7 hPa 0,0 l/m 3,2 km/h (1 Bft) SW 225 5,3 C 7,5 C
29.12.2012 12:56 7,5 C 86 % 1017,8 hPa 0,0 l/m 5,8 km/h (2 Bft) S-SW 202 5,3 C 6,7 C
29.12.2012 13:01 7,6 C 86 % 1017,5 hPa 0,0 l/m 10,1 km/h (2 Bft) S-SW 202 5,4 C 5,7 C
29.12.2012 13:06 7,6 C 86 % 1017,7 hPa 0,0 l/m 3,6 km/h (1 Bft) S-SW 202 5,4 C 7,6 C
29.12.2012 13:11 7,6 C 86 % 1017,5 hPa 0,0 l/m 6,1 km/h (2 Bft) S-SW 202 5,4 C 6,7 C
29.12.2012 13:16 7,8 C 86 % 1017,7 hPa 0,0 l/m 5,0 km/h (1 Bft) S 180 5,6 C 7,3 C
29.12.2012 13:21 7,8 C 86 % 1017,4 hPa 0,0 l/m 10,1 km/h (2 Bft) S-SW 202 5,6 C 6,0 C
29.12.2012 13:26 7,8 C 86 % 1017,5 hPa 0,0 l/m 11,2 km/h (2 Bft) W-SW 247 5,6 C 5,8 C
29.12.2012 13:31 7,8 C 86 % 1017,5 hPa 0,0 l/m 14,8 km/h (3 Bft) S-SW 202 5,6 C 5,2 C
29.12.2012 13:36 7,8 C 86 % 1017,5 hPa 0,0 l/m 6,8 km/h (2 Bft) S-SO 157 5,6 C 6,7 C
29.12.2012 13:41 7,8 C 86 % 1017,4 hPa 0,0 l/m 10,1 km/h (2 Bft) S-SW 202 5,6 C 6,0 C
29.12.2012 13:46 7,9 C 86 % 1017,2 hPa 0,0 l/m 3,2 km/h (1 Bft) SO 135 5,7 C 7,9 C
29.12.2012 13:51 7,9 C 86 % 1017,2 hPa 0,0 l/m 7,2 km/h (2 Bft) SW 225 5,7 C 6,7 C
29.12.2012 13:56 7,9 C 86 % 1017,3 hPa 0,0 l/m 12,2 km/h (2 Bft) S-SW 202 5,7 C 5,7 C
29.12.2012 14:01 7,9 C 86 % 1017,2 hPa 0,0 l/m 11,5 km/h (2 Bft) S-SW 202 5,7 C 5,9 C
29.12.2012 14:06 7,9 C 86 % 1017,2 hPa 0,0 l/m 15,8 km/h (3 Bft) SW 225 5,7 C 5,2 C
29.12.2012 14:11 7,9 C 86 % 1017,1 hPa 0,0 l/m 10,1 km/h (2 Bft) S-SO 157 5,7 C 6,1 C
29.12.2012 14:16 7,9 C 86 % 1017,0 hPa 0,0 l/m 4,0 km/h (1 Bft) S-SW 202 5,7 C 7,9 C
29.12.2012 14:21 8,0 C 86 % 1017,0 hPa 0,0 l/m 11,5 km/h (2 Bft) SW 225 5,8 C 6,0 C
29.12.2012 14:26 8,1 C 86 % 1016,8 hPa 0,0 l/m 5,8 km/h (2 Bft) S-SW 202 5,9 C 7,3 C
29.12.2012 14:31 8,1 C 86 % 1016,7 hPa 0,0 l/m 6,8 km/h (2 Bft) S-SO 157 5,9 C 7,1 C
29.12.2012 14:36 8,1 C 86 % 1016,7 hPa 0,0 l/m 0,0 km/h (0 Bft) O-SO 112 5,9 C 8,1 C
29.12.2012 14:41 8,1 C 86 % 1016,6 hPa 0,0 l/m 3,6 km/h (1 Bft) SO 135 5,9 C 8,1 C
29.12.2012 14:46 8,2 C 86 % 1016,5 hPa 0,0 l/m 12,2 km/h (2 Bft) S-SO 157 6,0 C 6,1 C
29.12.2012 14:51 8,1 C 86 % 1016,6 hPa 0,0 l/m 6,8 km/h (2 Bft) S-SW 202 5,9 C 7,1 C
29.12.2012 14:56 8,1 C 86 % 1016,4 hPa 0,0 l/m 7,6 km/h (2 Bft) S 180 5,9 C 6,9 C
29.12.2012 15:01 8,1 C 86 % 1016,3 hPa 0,0 l/m 5,0 km/h (1 Bft) S-SO 157 5,9 C 7,6 C
29.12.2012 15:06 8,2 C 86 % 1016,2 hPa 0,0 l/m 7,2 km/h (2 Bft) S-SO 157 6,0 C 7,1 C
29.12.2012 15:11 8,2 C 86 % 1016,2 hPa 0,0 l/m 10,8 km/h (2 Bft) S-SW 202 6,0 C 6,3 C
29.12.2012 15:16 8,2 C 86 % 1016,2 hPa 0,0 l/m 18,4 km/h (3 Bft) S 180 6,0 C 5,3 C
29.12.2012 15:21 8,2 C 86 % 1016,0 hPa 0,0 l/m 14,4 km/h (3 Bft) S-SO 157 6,0 C 5,8 C
29.12.2012 15:26 8,2 C 86 % 1016,0 hPa 0,0 l/m 10,1 km/h (2 Bft) S 180 6,0 C 6,5 C
29.12.2012 15:31 8,1 C 86 % 1016,0 hPa 0,0 l/m 14,4 km/h (3 Bft) SO 135 5,9 C 5,7 C
29.12.2012 15:36 8,1 C 86 % 1015,8 hPa 0,0 l/m 5,0 km/h (1 Bft) S-SO 157 5,9 C 7,6 C
29.12.2012 15:41 8,1 C 86 % 1015,7 hPa 0,0 l/m 3,6 km/h (1 Bft) SW 225 5,9 C 8,1 C
29.12.2012 15:46 7,9 C 86 % 1015,6 hPa 0,0 l/m 3,6 km/h (1 Bft) S-SO 157 5,7 C 7,9 C
29.12.2012 15:51 7,8 C 86 % 1015,6 hPa 0,0 l/m 4,0 km/h (1 Bft) SO 135 5,6 C 7,8 C
29.12.2012 15:56 7,6 C 86 % 1015,6 hPa 0,0 l/m 6,1 km/h (2 Bft) S 180 5,4 C 6,7 C
29.12.2012 16:01 7,5 C 86 % 1015,5 hPa 0,0 l/m 13,3 km/h (3 Bft) S-SW 202 5,3 C 5,1 C
29.12.2012 16:06 7,4 C 86 % 1015,6 hPa 0,0 l/m 12,2 km/h (2 Bft) S-SW 202 5,2 C 5,1 C
29.12.2012 16:11 7,3 C 87 % 1015,5 hPa 0,0 l/m 12,6 km/h (3 Bft) S-SO 157 5,3 C 4,9 C
29.12.2012 16:16 7,2 C 87 % 1015,5 hPa 0,0 l/m 7,9 km/h (2 Bft) SW 225 5,2 C 5,7 C
29.12.2012 16:21 7,2 C 87 % 1015,2 hPa 0,0 l/m 11,2 km/h (2 Bft) SW 225 5,2 C 5,1 C
29.12.2012 16:26 7,1 C 87 % 1015,3 hPa 0,0 l/m 9,4 km/h (2 Bft) S 180 5,1 C 5,3 C
29.12.2012 16:31 7,0 C 88 % 1015,3 hPa 0,0 l/m 11,9 km/h (2 Bft) W-SW 247 5,2 C 4,7 C
29.12.2012 16:36 6,9 C 87 % 1015,2 hPa 0,0 l/m 6,1 km/h (2 Bft) S-SW 202 4,9 C 5,9 C
29.12.2012 16:41 6,9 C 87 % 1015,1 hPa 0,0 l/m 5,0 km/h (1 Bft) S-SW 202 4,9 C 6,2 C
29.12.2012 16:46 6,8 C 87 % 1015,0 hPa 0,0 l/m 4,3 km/h (1 Bft) S 180 4,8 C 6,8 C
29.12.2012 16:51 6,7 C 88 % 1015,0 hPa 0,0 l/m 6,1 km/h (2 Bft) S 180 4,9 C 5,6 C
29.12.2012 16:56 6,6 C 88 % 1015,0 hPa 0,0 l/m 5,8 km/h (2 Bft) S-SO 157 4,8 C 5,6 C
29.12.2012 17:01 6,5 C 88 % 1015,0 hPa 0,0 l/m 10,4 km/h (2 Bft) S-SW 202 4,7 C 4,4 C
29.12.2012 17:06 6,4 C 88 % 1014,9 hPa 0,0 l/m 9,7 km/h (2 Bft) W-SW 247 4,6 C 4,4 C
29.12.2012 17:11 6,4 C 88 % 1014,9 hPa 0,0 l/m 5,8 km/h (2 Bft) S-SO 157 4,6 C 5,4 C
29.12.2012 17:16 6,3 C 88 % 1014,9 hPa 0,0 l/m 0,0 km/h (0 Bft) S-SO 157 4,5 C 6,3 C
29.12.2012 17:21 6,3 C 88 % 1014,8 hPa 0,0 l/m 1,4 km/h (1 Bft) S 180 4,5 C 6,3 C
29.12.2012 17:26 6,2 C 88 % 1014,7 hPa 0,0 l/m 2,9 km/h (1 Bft) S-SO 157 4,4 C 6,2 C
29.12.2012 17:31 6,1 C 88 % 1014,7 hPa 0,0 l/m 3,6 km/h (1 Bft) SO 135 4,3 C 6,1 C
29.12.2012 17:36 6,0 C 89 % 1014,5 hPa 0,0 l/m 4,7 km/h (1 Bft) S 180 4,3 C 5,3 C
29.12.2012 17:41 5,9 C 89 % 1014,5 hPa 0,0 l/m 4,7 km/h (1 Bft) S-SO 157 4,2 C 5,2 C
29.12.2012 17:46 5,9 C 89 % 1014,5 hPa 0,0 l/m 3,2 km/h (1 Bft) SO 135 4,2 C 5,9 C
29.12.2012 17:51 5,9 C 89 % 1014,4 hPa 0,0 l/m 4,7 km/h (1 Bft) S 180 4,2 C 5,2 C
29.12.2012 17:56 5,9 C 89 % 1014,4 hPa 0,0 l/m 2,5 km/h (1 Bft) S-SO 157 4,2 C 5,9 C
29.12.2012 18:01 5,9 C 89 % 1014,3 hPa 0,0 l/m 2,5 km/h (1 Bft) S-SO 157 4,2 C 5,9 C
29.12.2012 18:06 5,8 C 89 % 1014,2 hPa 0,0 l/m 5,0 km/h (1 Bft) S-SW 202 4,1 C 5,0 C
29.12.2012 18:11 5,8 C 89 % 1014,3 hPa 0,0 l/m 1,4 km/h (1 Bft) S-SO 157 4,1 C 5,8 C
29.12.2012 18:16 5,8 C 89 % 1014,2 hPa 0,0 l/m 0,0 km/h (0 Bft) S-SO 157 4,1 C 5,8 C
29.12.2012 18:21 5,8 C 89 % 1014,1 hPa 0,0 l/m 2,5 km/h (1 Bft) S-SO 157 4,1 C 5,8 C
29.12.2012 18:26 5,8 C 89 % 1014,1 hPa 0,0 l/m 2,9 km/h (1 Bft) S-SO 157 4,1 C 5,8 C
29.12.2012 18:31 5,8 C 89 % 1013,8 hPa 0,0 l/m 6,1 km/h (2 Bft) S-SO 157 4,1 C 4,6 C
29.12.2012 18:36 5,8 C 90 % 1013,8 hPa 0,0 l/m 7,2 km/h (2 Bft) S-SO 157 4,3 C 4,3 C
29.12.2012 18:41 5,8 C 90 % 1013,7 hPa 0,0 l/m 10,8 km/h (2 Bft) S-SW 202 4,3 C 3,5 C
29.12.2012 18:46 5,8 C 90 % 1013,5 hPa 0,0 l/m 4,3 km/h (1 Bft) S 180 4,3 C 5,8 C
29.12.2012 18:51 5,8 C 90 % 1013,5 hPa 0,0 l/m 5,4 km/h (1 Bft) S-SO 157 4,3 C 4,8 C
29.12.2012 18:56 5,9 C 90 % 1013,5 hPa 0,0 l/m 0,0 km/h (0 Bft) S-SO 157 4,4 C 5,9 C
29.12.2012 19:01 5,9 C 90 % 1013,6 hPa 0,0 l/m 8,6 km/h (2 Bft) S-SO 157 4,4 C 4,0 C
29.12.2012 19:06 5,9 C 90 % 1013,4 hPa 0,0 l/m 5,8 km/h (2 Bft) S-SO 157 4,4 C 4,8 C
29.12.2012 19:11 6,0 C 90 % 1013,3 hPa 0,0 l/m 4,0 km/h (1 Bft) S 180 4,5 C 6,0 C
29.12.2012 19:16 6,1 C 90 % 1013,2 hPa 0,0 l/m 8,6 km/h (2 Bft) S-SW 202 4,6 C 4,3 C
29.12.2012 19:21 6,2 C 90 % 1013,2 hPa 0,0 l/m 10,1 km/h (2 Bft) SW 225 4,7 C 4,1 C
29.12.2012 19:26 6,3 C 90 % 1013,1 hPa 0,0 l/m 9,0 km/h (2 Bft) SO 135 4,8 C 4,4 C
29.12.2012 19:31 6,4 C 90 % 1013,0 hPa 0,0 l/m 9,4 km/h (2 Bft) S-SO 157 4,9 C 4,5 C
29.12.2012 19:36 6,4 C 90 % 1012,9 hPa 0,0 l/m 11,9 km/h (2 Bft) S-SO 157 4,9 C 4,0 C
29.12.2012 19:41 6,5 C 90 % 1012,8 hPa 0,0 l/m 6,5 km/h (2 Bft) S-SO 157 5,0 C 5,3 C
29.12.2012 19:46 6,6 C 90 % 1012,7 hPa 0,0 l/m 13,3 km/h (3 Bft) S-SO 157 5,1 C 4,0 C
29.12.2012 19:51 6,7 C 89 % 1012,6 hPa 0,0 l/m 11,2 km/h (2 Bft) S 180 5,0 C 4,5 C
29.12.2012 19:56 6,7 C 89 % 1012,4 hPa 0,0 l/m 9,7 km/h (2 Bft) S-SO 157 5,0 C 4,8 C
29.12.2012 20:01 6,7 C 88 % 1012,3 hPa 0,0 l/m 19,1 km/h (3 Bft) S-SO 157 4,9 C 3,3 C
29.12.2012 20:06 6,8 C 88 % 1012,4 hPa 0,0 l/m 7,9 km/h (2 Bft) S 180 5,0 C 5,3 C
29.12.2012 20:11 6,8 C 87 % 1012,2 hPa 0,0 l/m 5,8 km/h (2 Bft) S-SO 157 4,8 C 5,9 C
29.12.2012 20:16 6,8 C 87 % 1012,1 hPa 0,0 l/m 16,6 km/h (3 Bft) S-SW 202 4,8 C 3,7 C
29.12.2012 20:21 6,8 C 87 % 1012,1 hPa 0,0 l/m 10,1 km/h (2 Bft) S-SO 157 4,8 C 4,8 C
29.12.2012 20:26 6,9 C 86 % 1012,1 hPa 0,0 l/m 6,5 km/h (2 Bft) S-SO 157 4,7 C 5,8 C
29.12.2012 20:31 6,9 C 86 % 1012,0 hPa 0,0 l/m 7,2 km/h (2 Bft) SW 225 4,7 C 5,6 C
29.12.2012 20:36 6,9 C 85 % 1011,9 hPa 0,0 l/m 13,0 km/h (3 Bft) S-SO 157 4,6 C 4,4 C
29.12.2012 20:41 6,9 C 85 % 1011,9 hPa 0,0 l/m 20,9 km/h (4 Bft) SW 225 4,6 C 3,4 C
29.12.2012 20:46 6,9 C 85 % 1011,8 hPa 0,0 l/m 9,4 km/h (2 Bft) S-SO 157 4,6 C 5,1 C
29.12.2012 20:51 6,9 C 85 % 1011,7 hPa 0,0 l/m 7,6 km/h (2 Bft) SO 135 4,6 C 5,5 C
29.12.2012 20:56 6,9 C 84 % 1011,7 hPa 0,0 l/m 14,4 km/h (3 Bft) S-SO 157 4,4 C 4,2 C
29.12.2012 21:01 6,8 C 84 % 1011,6 hPa 0,0 l/m 9,4 km/h (2 Bft) S-SW 202 4,3 C 4,9 C
29.12.2012 21:06 6,8 C 84 % 1011,6 hPa 0,0 l/m 8,6 km/h (2 Bft) SW 225 4,3 C 5,1 C
29.12.2012 21:11 6,8 C 83 % 1011,3 hPa 0,0 l/m 7,6 km/h (2 Bft) S-SO 157 4,1 C 5,3 C
29.12.2012 21:16 6,8 C 83 % 1011,4 hPa 0,0 l/m 7,6 km/h (2 Bft) S-SO 157 4,1 C 5,3 C
29.12.2012 21:21 6,7 C 83 % 1011,3 hPa 0,0 l/m 6,1 km/h (2 Bft) S-SO 157 4,0 C 5,6 C
29.12.2012 21:26 6,6 C 83 % 1011,3 hPa 0,0 l/m 4,0 km/h (1 Bft) S 180 3,9 C 6,6 C
29.12.2012 21:31 6,6 C 83 % 1011,3 hPa 0,0 l/m 16,2 km/h (3 Bft) W-SW 247 3,9 C 3,6 C
29.12.2012 21:36 6,5 C 83 % 1011,3 hPa 0,0 l/m 7,2 km/h (2 Bft) S-SW 202 3,8 C 5,1 C
29.12.2012 21:41 6,5 C 83 % 1011,3 hPa 0,0 l/m 2,5 km/h (1 Bft) S-SW 202 3,8 C 6,5 C
29.12.2012 21:46 6,4 C 83 % 1011,1 hPa 0,0 l/m 10,8 km/h (2 Bft) S-SO 157 3,7 C 4,2 C
29.12.2012 21:51 6,3 C 83 % 1011,2 hPa 0,0 l/m 6,8 km/h (2 Bft) W 270 3,6 C 5,0 C
29.12.2012 21:56 6,3 C 83 % 1011,1 hPa 0,0 l/m 9,4 km/h (2 Bft) S-SO 157 3,6 C 4,3 C
29.12.2012 22:01 6,2 C 83 % 1010,9 hPa 0,0 l/m 6,1 km/h (2 Bft) S 180 3,5 C 5,1 C
29.12.2012 22:06 6,1 C 83 % 1010,8 hPa 0,0 l/m 6,8 km/h (2 Bft) S 180 3,4 C 4,7 C
29.12.2012 22:11 6,1 C 83 % 1010,7 hPa 0,0 l/m 11,2 km/h (2 Bft) S-SW 202 3,4 C 3,7 C
29.12.2012 22:16 6,1 C 83 % 1010,6 hPa 0,0 l/m 7,6 km/h (2 Bft) S-SW 202 3,4 C 4,5 C
29.12.2012 22:21 6,1 C 83 % 1010,7 hPa 0,0 l/m 8,3 km/h (2 Bft) S-SO 157 3,4 C 4,4 C
29.12.2012 22:26 6,0 C 83 % 1011,1 hPa 0,0 l/m 9,0 km/h (2 Bft) S-SW 202 3,3 C 4,1 C
29.12.2012 22:31 5,9 C 83 % 1011,1 hPa 0,0 l/m 12,6 km/h (3 Bft) SW 225 3,2 C 3,2 C
29.12.2012 22:36 5,9 C 83 % 1011,1 hPa 0,0 l/m 12,2 km/h (2 Bft) S-SW 202 3,2 C 3,3 C
29.12.2012 22:41 5,9 C 83 % 1011,0 hPa 0,0 l/m 10,1 km/h (2 Bft) S 180 3,2 C 3,7 C
29.12.2012 22:46 5,9 C 83 % 1010,8 hPa 0,0 l/m 10,4 km/h (2 Bft) S 180 3,2 C 3,7 C
29.12.2012 22:51 6,1 C 83 % 1010,8 hPa 0,0 l/m 14,4 km/h (3 Bft) W-SW 247 3,4 C 3,2 C
29.12.2012 22:56 6,1 C 83 % 1010,7 hPa 0,0 l/m 9,0 km/h (2 Bft) SW 225 3,4 C 4,2 C
29.12.2012 23:01 6,1 C 83 % 1010,8 hPa 0,0 l/m 14,8 km/h (3 Bft) S-SW 202 3,4 C 3,1 C
29.12.2012 23:06 6,1 C 83 % 1010,6 hPa 0,0 l/m 13,3 km/h (3 Bft) SW 225 3,4 C 3,4 C
29.12.2012 23:11 6,1 C 83 % 1010,7 hPa 0,0 l/m 14,8 km/h (3 Bft) SW 225 3,4 C 3,1 C
29.12.2012 23:16 6,1 C 83 % 1010,6 hPa 0,0 l/m 12,6 km/h (3 Bft) SW 225 3,4 C 3,5 C
29.12.2012 23:21 6,1 C 83 % 1010,4 hPa 0,0 l/m 9,0 km/h (2 Bft) W-SW 247 3,4 C 4,2 C
29.12.2012 23:26 6,1 C 83 % 1010,7 hPa 0,0 l/m 7,6 km/h (2 Bft) S 180 3,4 C 4,5 C
29.12.2012 23:31 6,1 C 83 % 1010,7 hPa 0,0 l/m 9,7 km/h (2 Bft) S-SW 202 3,4 C 4,0 C
29.12.2012 23:36 6,1 C 83 % 1010,7 hPa 0,0 l/m 15,8 km/h (3 Bft) S-SW 202 3,4 C 3,0 C
29.12.2012 23:41 6,1 C 83 % 1010,6 hPa 0,0 l/m 13,3 km/h (3 Bft) S-SW 202 3,4 C 3,4 C
29.12.2012 23:46 6,1 C 82 % 1010,6 hPa 0,0 l/m 11,2 km/h (2 Bft) W-SW 247 3,3 C 3,7 C
29.12.2012 23:51 6,1 C 82 % 1010,7 hPa 0,0 l/m 16,9 km/h (3 Bft) S-SW 202 3,3 C 2,8 C
29.12.2012 23:56 6,2 C 82 % 1010,5 hPa 0,0 l/m 6,5 km/h (2 Bft) S-SW 202 3,4 C 4,9 C
_ Min-Zeit 00:01 23:46 23:21 - 02:01 - - 00:01 00:06
Minimum _ 1,9 C 82 % 1010,4 hPa - 0,0 km/h (0 Bft) - - -0,3 C -1,9 C
_ Max-Zeit 14:46 18:36 00:01 00:01 20:41 - - 14:46 14:36
Maximum _ 8,2 C 90 % 1023,3 hPa 0,0 l/m 20,9 km/h
SW (4 Bft)
- - 6,0 C 8,1 C
Durchschnitt _ 5,6 C 87 % 1017,3 hPa #0,0 l/m 9,2 km/h (2 Bft) S-SW - 3,6 C 3,8 C
(c) by David Heller